createdAt,value
2018-12-12T00:00:42.159Z,1.40
2018-12-12T00:01:42.138Z,1.30
2018-12-12T00:02:42.127Z,1.40
2018-12-12T00:03:42.148Z,1.50
2018-12-12T00:04:42.104Z,1.40
2018-12-12T00:05:42.096Z,1.40
2018-12-12T00:06:42.080Z,1.30
2018-12-12T00:07:42.069Z,1.30
2018-12-12T00:08:42.086Z,1.20
2018-12-12T00:09:42.110Z,1.30
2018-12-12T00:10:42.035Z,1.20
2018-12-12T00:11:42.028Z,1.20
2018-12-12T00:12:42.036Z,1.20
2018-12-12T00:13:42.026Z,1.40
2018-12-12T00:14:41.987Z,1.30
2018-12-12T00:15:41.977Z,1.20
2018-12-12T00:16:41.991Z,1.30
2018-12-12T00:17:41.958Z,1.30
2018-12-12T00:18:41.942Z,1.40
2018-12-12T00:19:41.957Z,1.20
2018-12-12T00:20:41.923Z,1.20
2018-12-12T00:21:41.932Z,1.30
2018-12-12T00:22:41.899Z,1.30
2018-12-12T00:23:41.886Z,1.20
2018-12-12T00:24:41.898Z,1.30
2018-12-12T00:25:41.904Z,1.40
2018-12-12T00:26:41.849Z,1.20
2018-12-12T00:27:41.837Z,1.20
2018-12-12T00:28:41.850Z,1.50
2018-12-12T00:29:41.817Z,1.30
2018-12-12T00:30:41.802Z,1.30
2018-12-12T00:31:41.817Z,1.20
2018-12-12T00:32:41.780Z,1.40
2018-12-12T00:33:41.767Z,1.20
2018-12-12T00:34:41.759Z,1.30
2018-12-12T00:35:41.749Z,1.30
2018-12-12T00:36:41.757Z,1.30
2018-12-12T00:37:41.722Z,1.30
2018-12-12T00:38:41.710Z,1.30
2018-12-12T00:39:41.723Z,1.30
2018-12-12T00:40:41.687Z,1.20
2018-12-12T00:41:41.693Z,1.30
2018-12-12T00:42:41.663Z,1.20
2018-12-12T00:43:41.655Z,1.30
2018-12-12T00:44:41.666Z,1.20
2018-12-12T00:45:41.630Z,1.30
2018-12-12T00:46:41.616Z,1.40
2018-12-12T00:47:41.607Z,1.40
2018-12-12T00:48:41.617Z,1.20
2018-12-12T00:49:41.580Z,1.30
2018-12-12T00:50:41.569Z,1.10
2018-12-12T00:51:41.583Z,1.30
2018-12-12T00:52:41.547Z,1.40
2018-12-12T00:53:41.534Z,1.20
2018-12-12T00:54:41.523Z,1.10
2018-12-12T00:55:41.510Z,1.30
2018-12-12T00:56:41.527Z,1.20
2018-12-12T00:57:41.494Z,1.40
2018-12-12T00:58:41.475Z,1.10
2018-12-12T00:59:41.488Z,1.30
2018-12-12T01:00:41.454Z,1.20
2018-12-12T01:01:41.440Z,1.40
2018-12-12T01:02:41.428Z,1.20
2018-12-12T01:03:41.445Z,1.30
2018-12-12T01:04:41.406Z,1.50
2018-12-12T01:05:41.393Z,1.40
2018-12-12T01:06:41.410Z,1.20
2018-12-12T01:07:41.370Z,1.20
2018-12-12T01:08:41.386Z,1.30
2018-12-12T01:09:41.351Z,1.30
2018-12-12T01:10:41.334Z,1.40
2018-12-12T01:11:41.323Z,1.30
2018-12-12T01:12:41.311Z,1.30
2018-12-12T01:13:41.325Z,1.40
2018-12-12T01:14:41.290Z,1.30
2018-12-12T01:15:41.304Z,1.20
2018-12-12T01:16:41.264Z,1.30
2018-12-12T01:17:41.253Z,1.30
2018-12-12T01:18:41.241Z,1.10
2018-12-12T01:19:41.230Z,1.20
2018-12-12T01:20:41.246Z,1.20
2018-12-12T01:21:41.209Z,1.20
2018-12-12T01:22:41.195Z,1.00
2018-12-12T01:23:41.213Z,1.20
2018-12-12T01:24:41.172Z,1.30
2018-12-12T01:25:41.227Z,1.20
2018-12-12T01:26:41.151Z,1.30
2018-12-12T01:27:41.161Z,1.40
2018-12-12T01:28:41.128Z,1.30
2018-12-12T01:29:41.115Z,1.10
2018-12-12T01:30:41.101Z,1.30
2018-12-12T01:31:41.093Z,1.30
2018-12-12T01:32:41.109Z,1.20
2018-12-12T01:33:41.093Z,1.20
2018-12-12T01:34:41.055Z,1.10
2018-12-12T01:35:41.044Z,1.40
2018-12-12T01:36:46.237Z,1.20
2018-12-12T01:37:41.024Z,1.20
2018-12-12T01:38:41.012Z,1.20
2018-12-12T01:39:41.007Z,1.40
2018-12-12T01:40:40.988Z,1.20
2018-12-12T01:41:41.000Z,1.30
2018-12-12T01:42:40.965Z,1.20
2018-12-12T01:43:40.954Z,1.20
2018-12-12T01:44:40.942Z,1.20
2018-12-12T01:45:40.929Z,1.20
2018-12-12T01:46:40.943Z,1.30
2018-12-12T01:47:40.907Z,1.30
2018-12-12T01:48:40.896Z,1.10
2018-12-12T01:49:40.886Z,1.40
2018-12-12T01:50:40.888Z,1.30
2018-12-12T01:51:40.884Z,1.20
2018-12-12T01:52:40.849Z,1.20
2018-12-12T01:53:40.836Z,1.30
2018-12-12T01:54:40.851Z,1.30
2018-12-12T01:55:40.816Z,1.20
2018-12-12T01:56:40.801Z,1.20
2018-12-12T01:57:40.828Z,1.30
2018-12-12T01:58:40.781Z,1.20
2018-12-12T01:59:40.770Z,1.30
2018-12-12T02:00:40.756Z,1.20
2018-12-12T02:01:40.744Z,1.00
2018-12-12T02:02:40.760Z,1.10
2018-12-12T02:03:40.723Z,1.10
2018-12-12T02:04:40.738Z,1.20
2018-12-12T02:05:40.700Z,1.20
2018-12-12T02:06:40.684Z,1.20
2018-12-12T02:07:40.700Z,1.20
2018-12-12T02:08:40.661Z,1.20
2018-12-12T02:09:40.652Z,1.30
2018-12-12T02:10:40.638Z,1.40
2018-12-12T02:11:40.630Z,1.30
2018-12-12T02:12:40.638Z,1.20
2018-12-12T02:13:40.606Z,1.20
2018-12-12T02:14:40.593Z,1.10
2018-12-12T02:15:40.580Z,1.30
2018-12-12T02:16:40.597Z,1.20
2018-12-12T02:17:40.556Z,1.10
2018-12-12T02:18:40.548Z,1.10
2018-12-12T02:19:40.535Z,1.20
2018-12-12T02:20:40.548Z,1.10
2018-12-12T02:21:40.512Z,1.30
2018-12-12T02:22:40.499Z,1.30
2018-12-12T02:23:40.512Z,1.10
2018-12-12T02:24:40.476Z,1.20
2018-12-12T02:25:40.463Z,1.20
2018-12-12T02:26:40.453Z,1.20
2018-12-12T02:27:40.470Z,1.30
2018-12-12T02:28:40.428Z,1.30
2018-12-12T02:29:40.448Z,1.10
2018-12-12T02:30:40.406Z,1.10
2018-12-12T02:31:40.419Z,1.20
2018-12-12T02:32:40.383Z,1.20
2018-12-12T02:33:40.371Z,1.20
2018-12-12T02:34:40.398Z,1.20
2018-12-12T02:35:40.348Z,1.30
2018-12-12T02:36:40.339Z,1.10
2018-12-12T02:37:40.325Z,1.10
2018-12-12T02:38:40.311Z,1.10
2018-12-12T02:39:40.327Z,1.10
2018-12-12T02:40:40.314Z,1.40
2018-12-12T02:41:40.279Z,1.30
2018-12-12T02:42:40.295Z,1.30
2018-12-12T02:43:40.254Z,1.20
2018-12-12T02:44:40.241Z,1.30
2018-12-12T02:45:40.259Z,1.20
2018-12-12T02:46:40.218Z,1.20
2018-12-12T02:47:40.237Z,1.30
2018-12-12T02:48:40.204Z,1.40
2018-12-12T02:49:40.195Z,1.30
2018-12-12T02:50:40.171Z,1.30
2018-12-12T02:51:40.163Z,1.10
2018-12-12T02:52:40.173Z,1.20
2018-12-12T02:53:40.167Z,1.30
2018-12-12T02:54:40.124Z,1.50
2018-12-12T02:55:40.118Z,1.20
2018-12-12T02:56:40.105Z,0.90
2018-12-12T02:57:40.090Z,1.10
2018-12-12T02:58:40.104Z,1.30
2018-12-12T02:59:40.071Z,1.10
2018-12-12T03:00:40.055Z,1.20
2018-12-12T03:01:40.043Z,1.00
2018-12-12T03:02:40.033Z,1.20
2018-12-12T03:03:40.038Z,1.20
2018-12-12T03:04:40.038Z,1.10
2018-12-12T03:05:39.998Z,1.20
2018-12-12T03:06:39.991Z,1.20
2018-12-12T03:07:39.976Z,1.10
2018-12-12T03:08:39.962Z,1.20
2018-12-12T03:09:39.983Z,1.20
2018-12-12T03:10:39.939Z,1.20
2018-12-12T03:11:39.928Z,1.20
2018-12-12T03:12:39.920Z,1.20
2018-12-12T03:13:39.903Z,1.00
2018-12-12T03:14:39.928Z,1.20
2018-12-12T03:15:39.880Z,1.10
2018-12-12T03:16:39.870Z,1.20
2018-12-12T03:17:39.858Z,1.10
2018-12-12T03:18:39.847Z,1.10
2018-12-12T03:19:39.862Z,1.10
2018-12-12T03:20:39.821Z,1.10
2018-12-12T03:21:39.809Z,1.10
2018-12-12T03:22:39.828Z,1.10
2018-12-12T03:23:39.787Z,1.10
2018-12-12T03:24:39.776Z,1.30
2018-12-12T03:25:39.765Z,1.20
2018-12-12T03:26:39.794Z,1.20
2018-12-12T03:27:39.766Z,1.10
2018-12-12T03:28:39.731Z,1.10
2018-12-12T03:29:39.717Z,1.30
2018-12-12T03:30:39.726Z,1.20
2018-12-12T03:31:39.711Z,1.20
2018-12-12T03:32:39.726Z,1.10
2018-12-12T03:33:39.671Z,1.20
2018-12-12T03:34:39.661Z,1.30
2018-12-12T03:35:39.648Z,1.10
2018-12-12T03:36:39.637Z,1.10
2018-12-12T03:37:39.649Z,1.30
2018-12-12T03:38:39.614Z,0.90
2018-12-12T03:39:39.606Z,1.10
2018-12-12T03:40:39.618Z,1.10
2018-12-12T03:41:39.579Z,1.20
2018-12-12T03:42:39.568Z,1.10
2018-12-12T03:43:39.555Z,1.10
2018-12-12T03:44:39.568Z,1.20
2018-12-12T03:45:39.534Z,1.10
2018-12-12T03:46:39.521Z,1.10
2018-12-12T03:47:39.512Z,1.20
2018-12-12T03:48:39.496Z,1.10
2018-12-12T03:49:39.504Z,1.10
2018-12-12T03:50:39.477Z,1.20
2018-12-12T03:51:39.465Z,1.10
2018-12-12T03:52:39.482Z,1.10
2018-12-12T03:53:39.440Z,1.10
2018-12-12T03:54:39.428Z,1.20
2018-12-12T03:55:39.417Z,1.10
2018-12-12T03:56:39.405Z,1.20
2018-12-12T03:57:39.419Z,1.20
2018-12-12T03:58:39.379Z,1.10
2018-12-12T03:59:39.369Z,1.00
2018-12-12T04:00:39.359Z,1.10
2018-12-12T04:01:39.371Z,1.10
2018-12-12T04:02:39.334Z,1.10
2018-12-12T04:03:39.323Z,1.20
2018-12-12T04:04:39.310Z,1.10
2018-12-12T04:05:39.303Z,1.00
2018-12-12T04:06:39.317Z,1.10
2018-12-12T04:07:39.278Z,0.90
2018-12-12T04:08:39.265Z,1.00
2018-12-12T04:09:39.254Z,1.20
2018-12-12T04:10:39.243Z,1.20
2018-12-12T04:11:39.253Z,1.30
2018-12-12T04:12:39.220Z,1.20
2018-12-12T04:13:39.205Z,1.10
2018-12-12T04:14:39.199Z,1.20
2018-12-12T04:15:39.184Z,1.30
2018-12-12T04:16:39.199Z,1.30
2018-12-12T04:17:39.160Z,1.20
2018-12-12T04:18:39.175Z,1.30
2018-12-12T04:19:39.134Z,1.10
2018-12-12T04:20:39.125Z,1.30
2018-12-12T04:21:39.115Z,1.20
2018-12-12T04:22:39.126Z,1.00
2018-12-12T04:23:39.088Z,1.20
2018-12-12T04:24:39.076Z,1.10
2018-12-12T04:25:39.067Z,1.20
2018-12-12T04:26:39.057Z,1.10
2018-12-12T04:27:39.065Z,1.30
2018-12-12T04:28:39.055Z,1.10
2018-12-12T04:29:39.020Z,1.20
2018-12-12T04:30:39.031Z,1.20
2018-12-12T04:31:39.020Z,1.10
2018-12-12T04:32:38.989Z,1.10
2018-12-12T04:33:38.971Z,1.30
2018-12-12T04:34:38.959Z,1.20
2018-12-12T04:35:38.955Z,1.00
2018-12-12T04:36:38.974Z,1.20
2018-12-12T04:37:38.925Z,1.10
2018-12-12T04:38:38.914Z,1.20
2018-12-12T04:39:38.903Z,1.10
2018-12-12T04:40:38.890Z,1.20
2018-12-12T04:41:38.913Z,1.20
2018-12-12T04:42:38.867Z,1.10
2018-12-12T04:43:38.855Z,1.20
2018-12-12T04:44:38.846Z,1.10
2018-12-12T04:45:38.834Z,1.10
2018-12-12T04:46:38.847Z,1.30
2018-12-12T04:47:38.807Z,1.20
2018-12-12T04:48:38.798Z,1.10
2018-12-12T04:49:38.786Z,1.10
2018-12-12T04:50:38.774Z,1.10
2018-12-12T04:51:38.786Z,1.20
2018-12-12T04:52:38.769Z,1.00
2018-12-12T04:53:38.783Z,1.20
2018-12-12T04:54:38.727Z,1.20
2018-12-12T04:55:38.717Z,1.10
2018-12-12T04:56:38.707Z,1.20
2018-12-12T04:57:38.691Z,1.10
2018-12-12T04:58:38.720Z,0.90
2018-12-12T04:59:38.668Z,1.20
2018-12-12T05:00:38.656Z,1.10
2018-12-12T05:01:38.647Z,1.10
2018-12-12T05:02:38.633Z,1.20
2018-12-12T05:03:38.647Z,1.10
2018-12-12T05:04:38.612Z,1.00
2018-12-12T05:05:38.599Z,1.10
2018-12-12T05:06:38.614Z,1.10
2018-12-12T05:07:38.576Z,1.10
2018-12-12T05:08:38.564Z,1.20
2018-12-12T05:09:38.553Z,1.10
2018-12-12T05:10:38.571Z,1.10
2018-12-12T05:11:38.553Z,1.10
2018-12-12T05:12:38.520Z,1.00
2018-12-12T05:13:38.508Z,1.20
2018-12-12T05:14:38.495Z,1.20
2018-12-12T05:15:38.510Z,1.20
2018-12-12T05:16:38.500Z,1.20
2018-12-12T05:17:38.461Z,1.00
2018-12-12T05:18:38.474Z,1.10
2018-12-12T05:19:38.439Z,1.10
2018-12-12T05:20:38.425Z,1.20
2018-12-12T05:21:38.418Z,1.10
2018-12-12T05:22:38.438Z,1.20
2018-12-12T05:23:38.390Z,1.00
2018-12-12T05:24:38.379Z,1.20
2018-12-12T05:25:38.369Z,1.00
2018-12-12T05:26:38.355Z,1.20
2018-12-12T05:27:38.369Z,1.10
2018-12-12T05:28:38.336Z,1.10
2018-12-12T05:29:38.329Z,1.10
2018-12-12T05:30:38.309Z,1.00
2018-12-12T05:31:38.298Z,1.20
2018-12-12T05:32:38.309Z,1.10
2018-12-12T05:33:38.273Z,1.00
2018-12-12T05:34:38.268Z,1.00
2018-12-12T05:35:38.277Z,1.00
2018-12-12T05:36:38.240Z,1.00
2018-12-12T05:37:38.228Z,1.20
2018-12-12T05:38:38.218Z,1.30
2018-12-12T05:39:38.204Z,1.20
2018-12-12T05:40:38.225Z,1.00
2018-12-12T05:41:38.179Z,1.20
2018-12-12T05:42:38.168Z,1.10
2018-12-12T05:43:38.155Z,1.10
2018-12-12T05:44:38.144Z,1.10
2018-12-12T05:45:38.156Z,1.20
2018-12-12T05:46:41.848Z,1.20
2018-12-12T05:47:38.111Z,1.20
2018-12-12T05:48:38.127Z,1.20
2018-12-12T05:49:38.090Z,1.20
2018-12-12T05:50:38.076Z,1.10
2018-12-12T05:51:38.065Z,1.00
2018-12-12T05:52:38.056Z,1.30
2018-12-12T05:53:38.067Z,1.20
2018-12-12T05:54:38.030Z,1.10
2018-12-12T05:55:38.018Z,1.10
2018-12-12T05:56:38.006Z,1.30
2018-12-12T05:57:37.999Z,1.10
2018-12-12T05:58:38.014Z,1.20
2018-12-12T05:59:37.987Z,1.20
2018-12-12T06:00:37.963Z,1.00
2018-12-12T06:01:38.011Z,1.20
2018-12-12T06:02:38.043Z,1.00
2018-12-12T06:03:37.953Z,1.10
2018-12-12T06:04:37.914Z,1.10
2018-12-12T06:05:37.946Z,1.20
2018-12-12T06:06:37.895Z,1.20
2018-12-12T06:07:37.900Z,1.10
2018-12-12T06:08:37.867Z,1.30
2018-12-12T06:09:37.856Z,1.20
2018-12-12T06:10:37.872Z,1.00
2018-12-12T06:11:38.892Z,1.10
2018-12-12T06:12:37.845Z,1.00
2018-12-12T06:13:37.809Z,1.00
2018-12-12T06:14:37.800Z,1.10
2018-12-12T06:15:37.785Z,1.00
2018-12-12T06:16:37.801Z,1.00
2018-12-12T06:17:37.763Z,1.10
2018-12-12T06:18:37.750Z,1.00
2018-12-12T06:19:37.764Z,1.00
2018-12-12T06:20:37.728Z,1.10
2018-12-12T06:21:37.716Z,1.00
2018-12-12T06:22:38.083Z,1.20
2018-12-12T06:23:37.692Z,1.20
2018-12-12T06:24:37.707Z,1.20
2018-12-12T06:25:37.673Z,1.00
2018-12-12T06:26:37.764Z,0.90
2018-12-12T06:27:37.646Z,0.90
2018-12-12T06:28:37.635Z,0.90
2018-12-12T06:29:37.650Z,1.30
2018-12-12T06:30:37.610Z,1.00
2018-12-12T06:31:37.634Z,1.00
2018-12-12T06:32:37.596Z,1.20
2018-12-12T06:33:37.576Z,1.10
2018-12-12T06:34:37.566Z,1.00
2018-12-12T06:35:37.552Z,1.00
2018-12-12T06:36:37.687Z,1.00
2018-12-12T06:37:37.536Z,1.10
2018-12-12T06:38:37.518Z,1.20
2018-12-12T06:39:37.504Z,1.10
2018-12-12T06:40:37.494Z,1.30
2018-12-12T06:41:37.527Z,0.90
2018-12-12T06:42:37.471Z,1.20
2018-12-12T06:43:37.461Z,1.20
2018-12-12T06:44:37.447Z,1.10
2018-12-12T06:45:37.436Z,0.90
2018-12-12T06:46:37.457Z,1.20
2018-12-12T06:47:37.412Z,1.00
2018-12-12T06:48:37.412Z,1.20
2018-12-12T06:49:37.391Z,1.30
2018-12-12T06:50:37.379Z,1.20
2018-12-12T06:51:37.391Z,1.20
2018-12-12T06:52:37.363Z,1.40
2018-12-12T06:53:37.379Z,2.00
2018-12-12T06:54:37.331Z,2.40
2018-12-12T06:55:37.321Z,2.60
2018-12-12T06:56:37.309Z,2.70
2018-12-12T06:57:37.298Z,2.90
2018-12-12T06:58:37.310Z,3.10
2018-12-12T06:59:37.285Z,3.20
2018-12-12T07:00:37.260Z,3.20
2018-12-12T07:01:37.251Z,3.40
2018-12-12T07:02:37.236Z,3.50
2018-12-12T07:03:37.254Z,3.90
2018-12-12T07:04:37.216Z,4.10
2018-12-12T07:05:37.203Z,4.80
2018-12-12T07:06:37.195Z,4.60
2018-12-12T07:07:37.219Z,5.50
2018-12-12T07:08:37.192Z,5.00
2018-12-12T07:09:37.156Z,5.30
2018-12-12T07:10:37.168Z,5.70
2018-12-12T07:11:37.133Z,5.40
2018-12-12T07:12:37.122Z,5.80
2018-12-12T07:13:37.115Z,5.80
2018-12-12T07:14:37.096Z,6.30
2018-12-12T07:15:37.114Z,6.10
2018-12-12T07:16:37.095Z,6.20
2018-12-12T07:17:37.064Z,6.20
2018-12-12T07:18:37.086Z,5.90
2018-12-12T07:19:37.039Z,5.80
2018-12-12T07:20:37.055Z,5.50
2018-12-12T07:21:37.042Z,5.80
2018-12-12T07:22:37.036Z,5.50
2018-12-12T07:23:36.991Z,5.00
2018-12-12T07:24:36.980Z,4.80
2018-12-12T07:25:36.970Z,4.80
2018-12-12T07:26:36.976Z,5.00
2018-12-12T07:27:36.948Z,4.40
2018-12-12T07:28:36.991Z,4.60
2018-12-12T07:29:36.946Z,4.40
2018-12-12T07:30:36.911Z,4.40
2018-12-12T07:31:36.926Z,3.90
2018-12-12T07:32:36.891Z,4.40
2018-12-12T07:33:36.879Z,4.00
2018-12-12T07:34:36.865Z,4.20
2018-12-12T07:35:36.853Z,4.30
2018-12-12T07:36:36.865Z,4.00
2018-12-12T07:37:36.830Z,3.80
2018-12-12T07:38:36.816Z,4.20
2018-12-12T07:39:36.804Z,4.10
2018-12-12T07:40:36.796Z,4.00
2018-12-12T07:41:36.827Z,3.90
2018-12-12T07:42:36.773Z,3.90
2018-12-12T07:43:36.763Z,3.80
2018-12-12T07:44:36.750Z,3.70
2018-12-12T07:45:36.754Z,3.60
2018-12-12T07:46:36.752Z,3.50
2018-12-12T07:47:36.718Z,3.70
2018-12-12T07:48:36.701Z,3.90
2018-12-12T07:49:36.729Z,3.70
2018-12-12T07:50:36.678Z,3.50
2018-12-12T07:51:36.669Z,3.40
2018-12-12T07:52:36.683Z,3.60
2018-12-12T07:53:36.644Z,3.60
2018-12-12T07:54:36.635Z,3.60
2018-12-12T07:55:36.619Z,3.70
2018-12-12T07:56:36.635Z,3.60
2018-12-12T07:57:36.597Z,3.80
2018-12-12T07:58:36.610Z,3.50
2018-12-12T07:59:36.572Z,3.60
2018-12-12T08:00:36.580Z,3.90
2018-12-12T08:01:36.551Z,4.30
2018-12-12T08:02:36.539Z,4.20
2018-12-12T08:03:36.552Z,5.00
2018-12-12T08:04:36.517Z,4.50
2018-12-12T08:05:36.529Z,4.90
2018-12-12T08:06:36.493Z,5.10
2018-12-12T08:07:36.481Z,5.50
2018-12-12T08:27:26.410Z,13.90
2018-12-12T08:28:26.376Z,15.70
2018-12-12T08:29:26.369Z,21.00
2018-12-12T08:30:26.359Z,25.30
2018-12-12T08:31:26.367Z,26.50
2018-12-12T08:32:26.335Z,28.60
2018-12-12T08:33:26.321Z,29.20
2018-12-12T08:34:26.319Z,30.10
2018-12-12T08:35:26.311Z,31.20
2018-12-12T08:36:26.318Z,30.90
2018-12-12T08:37:26.297Z,30.60
2018-12-12T08:38:26.294Z,28.60
2018-12-12T08:39:26.278Z,31.50
2018-12-12T08:40:26.247Z,30.80
2018-12-12T08:41:26.246Z,33.00
2018-12-12T08:42:26.235Z,28.70
2018-12-12T08:43:26.245Z,31.50
2018-12-12T08:44:26.231Z,30.00
2018-12-12T08:45:26.192Z,32.20
2018-12-12T08:46:26.184Z,30.40
2018-12-12T08:47:26.196Z,25.00
2018-12-12T08:48:26.190Z,27.80
2018-12-12T08:49:26.154Z,28.50
2018-12-12T08:50:26.168Z,27.90
2018-12-12T08:51:26.200Z,27.00
2018-12-12T08:52:26.131Z,27.40
2018-12-12T08:53:26.129Z,28.30
2018-12-12T08:54:26.093Z,26.10
2018-12-12T08:55:26.106Z,27.20
2018-12-12T08:56:26.094Z,28.40
2018-12-12T08:57:26.060Z,27.00
2018-12-12T08:58:26.048Z,26.70
2018-12-12T08:59:26.037Z,25.90
2018-12-12T09:00:26.055Z,27.80
2018-12-12T09:01:26.022Z,30.50
2018-12-12T09:02:26.028Z,28.10
2018-12-12T09:03:25.994Z,28.90
2018-12-12T09:04:25.981Z,29.40
2018-12-12T09:05:25.969Z,28.40
2018-12-12T09:06:25.960Z,27.90
2018-12-12T09:07:25.977Z,28.50
2018-12-12T09:08:25.946Z,28.50
2018-12-12T09:09:25.941Z,26.60
2018-12-12T09:10:25.942Z,27.10
2018-12-12T09:11:25.904Z,27.50
2018-12-12T09:12:25.926Z,29.60
2018-12-12T09:13:25.890Z,27.00
2018-12-12T09:14:25.873Z,29.70
2018-12-12T09:15:25.883Z,27.60
2018-12-12T09:16:25.852Z,24.00
2018-12-12T09:17:25.862Z,24.00
2018-12-12T09:18:25.834Z,23.20
2018-12-12T09:19:25.819Z,26.10
2018-12-12T09:20:25.808Z,24.20
2018-12-12T09:21:25.795Z,23.00
2018-12-12T09:22:25.809Z,23.50
2018-12-12T09:23:25.808Z,22.40
2018-12-12T09:24:25.771Z,20.30
2018-12-12T09:25:25.792Z,21.40
2018-12-12T09:26:25.750Z,21.60
2018-12-12T09:27:25.730Z,22.70
2018-12-12T09:28:25.748Z,25.90
2018-12-12T09:29:25.709Z,24.90
2018-12-12T09:30:25.699Z,21.50
2018-12-12T09:31:25.687Z,19.40
2018-12-12T09:32:25.675Z,18.70
2018-12-12T09:33:26.323Z,17.60
2018-12-12T09:34:25.658Z,9.30
2018-12-12T09:35:26.815Z,10.70
2018-12-12T09:36:25.638Z,10.60
2018-12-12T09:37:25.633Z,8.90
2018-12-12T09:38:25.636Z,9.10
2018-12-12T09:39:25.645Z,10.50
2018-12-12T09:40:25.590Z,9.20
2018-12-12T09:41:25.593Z,9.80
2018-12-12T09:42:25.577Z,8.50
2018-12-12T09:43:26.120Z,8.70
2018-12-12T09:44:25.638Z,9.30
2018-12-12T09:45:26.623Z,8.70
2018-12-12T09:46:26.126Z,7.50
2018-12-12T09:47:25.523Z,8.10
2018-12-12T09:48:25.513Z,8.70
2018-12-12T09:49:25.495Z,8.50
2018-12-12T09:50:25.518Z,7.80
2018-12-12T09:51:25.476Z,8.80
2018-12-12T09:52:25.465Z,8.80
2018-12-12T09:53:25.460Z,9.30
2018-12-12T09:54:25.496Z,9.70
2018-12-12T09:55:25.452Z,10.40
2018-12-12T09:56:25.420Z,11.00
2018-12-12T09:57:25.436Z,10.60
2018-12-12T09:58:25.407Z,11.70
2018-12-12T09:59:25.394Z,12.10
2018-12-12T10:00:25.381Z,11.70
2018-12-12T10:01:25.402Z,12.50
2018-12-12T10:02:25.353Z,12.90
2018-12-12T10:03:30.999Z,13.00
2018-12-12T10:04:26.335Z,13.50
2018-12-12T10:05:25.333Z,14.00
2018-12-12T10:06:25.339Z,15.50
2018-12-12T10:07:25.329Z,15.10
2018-12-12T10:08:25.305Z,14.50
2018-12-12T10:09:25.281Z,13.90
2018-12-12T10:10:25.296Z,15.10
2018-12-12T10:11:25.264Z,14.70
2018-12-12T10:12:25.250Z,14.70
2018-12-12T10:13:25.241Z,14.40
2018-12-12T10:14:25.225Z,14.40
2018-12-12T10:15:25.249Z,13.70
2018-12-12T10:16:25.225Z,13.80
2018-12-12T10:17:25.195Z,13.90
2018-12-12T10:18:25.186Z,13.30
2018-12-12T10:19:25.176Z,13.10
2018-12-12T10:20:25.187Z,12.40
2018-12-12T10:21:25.160Z,13.00
2018-12-12T10:22:25.145Z,13.00
2018-12-12T10:23:25.141Z,12.90
2018-12-12T10:24:25.122Z,12.30
2018-12-12T10:25:25.136Z,13.00
2018-12-12T10:26:25.137Z,12.70
2018-12-12T10:27:25.117Z,12.40
2018-12-12T10:28:25.076Z,12.40
2018-12-12T10:29:25.143Z,13.10
2018-12-12T10:30:25.061Z,13.20
2018-12-12T10:31:25.052Z,13.70
2018-12-12T10:32:25.036Z,14.00
2018-12-12T10:33:25.047Z,14.60
2018-12-12T10:34:25.039Z,13.80
2018-12-12T10:35:24.999Z,14.20
2018-12-12T10:36:24.989Z,12.70
2018-12-12T10:37:24.977Z,13.20
2018-12-12T10:38:24.989Z,13.70
2018-12-12T10:39:24.971Z,12.80
2018-12-12T10:40:24.948Z,12.70
2018-12-12T10:41:24.979Z,11.20
2018-12-12T10:42:24.925Z,11.30
2018-12-12T10:43:24.917Z,11.90
2018-12-12T10:44:24.921Z,12.10
2018-12-12T10:45:24.896Z,12.10
2018-12-12T10:46:24.908Z,10.70
2018-12-12T10:47:24.899Z,10.90
2018-12-12T10:48:24.861Z,11.90
2018-12-12T10:49:24.884Z,10.50
2018-12-12T10:50:24.837Z,10.40
2018-12-12T10:51:24.862Z,9.50
2018-12-12T10:52:24.861Z,8.90
2018-12-12T10:53:24.821Z,9.30
2018-12-12T10:54:24.817Z,8.40
2018-12-12T10:55:24.860Z,6.70
2018-12-12T10:56:24.781Z,6.50
2018-12-12T10:57:24.773Z,6.60
2018-12-12T10:58:24.767Z,6.80
2018-12-12T10:59:24.784Z,7.20
2018-12-12T11:00:24.850Z,7.90
2018-12-12T11:01:24.754Z,6.30
2018-12-12T11:02:24.723Z,6.80
2018-12-12T11:03:24.715Z,6.20
2018-12-12T11:04:24.724Z,6.20
2018-12-12T11:05:24.699Z,6.10
2018-12-12T11:06:24.674Z,6.50
2018-12-12T11:07:24.675Z,6.30
2018-12-12T11:08:24.708Z,6.50
2018-12-12T11:09:24.659Z,5.70
2018-12-12T11:10:24.651Z,6.30
2018-12-12T11:11:24.695Z,6.90
2018-12-12T11:12:24.619Z,6.00
2018-12-12T11:13:25.739Z,6.60
2018-12-12T11:14:24.619Z,7.10
2018-12-12T11:15:24.591Z,7.20
2018-12-12T11:16:24.901Z,7.50
2018-12-12T11:17:24.553Z,7.30
2018-12-12T11:18:24.563Z,6.90
2018-12-12T11:19:24.529Z,6.30
2018-12-12T11:20:24.516Z,5.10
2018-12-12T11:21:24.513Z,4.50
2018-12-12T11:22:24.518Z,4.80
2018-12-12T11:23:24.485Z,5.40
2018-12-12T11:24:24.514Z,6.00
2018-12-12T11:25:24.463Z,6.60
2018-12-12T11:26:24.454Z,6.70
2018-12-12T11:27:24.732Z,6.30
2018-12-12T11:28:24.434Z,6.50
2018-12-12T11:29:24.423Z,6.90
2018-12-12T11:30:24.415Z,7.00
2018-12-12T11:31:24.406Z,6.80
2018-12-12T11:32:24.415Z,6.40
2018-12-12T11:33:24.419Z,6.80
2018-12-12T11:34:24.366Z,5.70
2018-12-12T11:35:24.358Z,6.00
2018-12-12T11:36:24.374Z,6.30
2018-12-12T11:37:24.340Z,7.70
2018-12-12T11:38:24.401Z,5.60
2018-12-12T11:39:24.316Z,6.50
2018-12-12T11:40:24.303Z,6.10
2018-12-12T11:41:24.323Z,6.20
2018-12-12T11:42:24.286Z,6.40
2018-12-12T11:43:24.274Z,6.20
2018-12-12T11:44:24.286Z,6.20
2018-12-12T11:45:24.251Z,6.00
2018-12-12T11:46:24.284Z,5.80
2018-12-12T11:47:24.240Z,5.40
2018-12-12T11:48:24.222Z,5.50
2018-12-12T11:49:24.212Z,5.30
2018-12-12T11:50:24.199Z,6.00
2018-12-12T11:51:24.306Z,6.20
2018-12-12T11:52:24.184Z,6.20
2018-12-12T11:53:24.170Z,6.50
2018-12-12T11:54:24.162Z,6.80
2018-12-12T11:55:24.153Z,6.50
2018-12-12T11:56:24.167Z,6.30
2018-12-12T11:57:24.128Z,6.50
2018-12-12T11:58:24.118Z,6.20
2018-12-12T11:59:24.110Z,7.00
2018-12-12T12:00:24.129Z,7.10
2018-12-12T12:01:24.087Z,6.60
2018-12-12T12:02:24.099Z,6.60
2018-12-12T12:03:24.065Z,6.60
2018-12-12T12:04:24.084Z,6.70
2018-12-12T12:05:24.071Z,6.60
2018-12-12T12:06:24.046Z,7.30
2018-12-12T12:07:24.038Z,6.90
2018-12-12T12:08:24.046Z,6.90
2018-12-12T12:09:24.011Z,6.80
2018-12-12T12:10:23.996Z,6.30
2018-12-12T12:11:24.030Z,7.10
2018-12-12T12:12:23.983Z,6.50
2018-12-12T12:13:23.961Z,6.80
2018-12-12T12:14:23.975Z,7.20
2018-12-12T12:15:23.940Z,6.40
2018-12-12T12:16:23.932Z,6.90
2018-12-12T12:17:23.952Z,6.10
2018-12-12T12:18:23.914Z,5.90
2018-12-12T12:19:23.913Z,5.70
2018-12-12T12:20:23.919Z,5.90
2018-12-12T12:21:23.918Z,6.10
2018-12-12T12:22:23.917Z,5.50
2018-12-12T12:23:23.877Z,5.30
2018-12-12T12:24:24.407Z,5.20
2018-12-12T12:25:23.862Z,4.80
2018-12-12T12:26:23.827Z,5.00
2018-12-12T12:27:23.823Z,4.90
2018-12-12T12:28:23.809Z,4.60
2018-12-12T12:29:23.865Z,4.90
2018-12-12T12:30:23.806Z,4.80
2018-12-12T12:31:23.799Z,4.90
2018-12-12T12:32:23.764Z,4.90
2018-12-12T12:33:23.750Z,5.00
2018-12-12T12:34:23.748Z,4.80
2018-12-12T12:35:23.790Z,4.60
2018-12-12T12:36:23.745Z,4.60
2018-12-12T12:37:23.713Z,4.40
2018-12-12T12:38:23.719Z,4.60
2018-12-12T12:39:23.690Z,4.60
2018-12-12T12:40:23.713Z,4.60
2018-12-12T12:41:23.672Z,4.10
2018-12-12T12:42:23.661Z,4.50
2018-12-12T12:43:23.666Z,4.30
2018-12-12T12:44:23.640Z,4.10
2018-12-12T12:45:23.677Z,4.20
2018-12-12T12:46:23.621Z,4.00
2018-12-12T12:47:23.613Z,4.70
2018-12-12T12:48:23.624Z,4.20
2018-12-12T12:49:23.600Z,4.40
2018-12-12T12:50:23.581Z,4.50
2018-12-12T12:51:23.607Z,4.60
2018-12-12T12:52:23.564Z,4.50
2018-12-12T12:53:23.547Z,4.60
2018-12-12T12:54:23.561Z,4.60
2018-12-12T12:55:23.543Z,5.00
2018-12-12T12:56:23.542Z,5.00
2018-12-12T12:57:23.550Z,5.00
2018-12-12T12:58:23.511Z,5.00
2018-12-12T12:59:23.522Z,4.90
2018-12-12T13:00:23.480Z,4.90
2018-12-12T13:01:23.463Z,5.00
2018-12-12T13:02:23.478Z,5.00
2018-12-12T13:03:23.446Z,4.50
2018-12-12T13:04:23.435Z,4.50
2018-12-12T13:05:23.428Z,4.90
2018-12-12T13:06:23.442Z,4.80
2018-12-12T13:07:23.434Z,5.40
2018-12-12T13:08:23.648Z,5.20
2018-12-12T13:09:23.403Z,4.90
2018-12-12T13:10:23.371Z,4.80
2018-12-12T13:11:23.395Z,5.10
2018-12-12T13:12:23.347Z,5.60
2018-12-12T13:13:23.508Z,5.00
2018-12-12T13:14:23.330Z,4.60
2018-12-12T13:15:23.318Z,5.20
2018-12-12T13:16:23.306Z,4.90
2018-12-12T13:17:23.295Z,5.20
2018-12-12T13:18:23.313Z,5.40
2018-12-12T13:19:23.278Z,4.80
2018-12-12T13:20:23.265Z,4.90
2018-12-12T13:21:23.258Z,4.80
2018-12-12T13:22:23.272Z,4.80
2018-12-12T13:23:23.299Z,4.50
2018-12-12T13:24:23.249Z,4.90
2018-12-12T13:25:23.256Z,4.40
2018-12-12T13:26:23.206Z,3.90
2018-12-12T13:27:23.197Z,3.60
2018-12-12T13:28:23.183Z,3.40
2018-12-12T13:29:23.174Z,3.30
2018-12-12T13:30:23.191Z,3.30
2018-12-12T13:31:23.151Z,3.10
2018-12-12T13:32:23.166Z,3.60
2018-12-12T13:33:23.131Z,3.40